Latest Weather Observations for Smithville

IDN60801

Issued at 9:32 pm EST Wednesday 19 September 2018 (issued every 10 minutes, with the page automatically refreshed every 10 minutes)

About weather observations | Map of weather stations | Latest weather observations for NSW | Other Formats
Station Details ID: 046142 Name: SMITHVILLE AWS Lat: -30.07 Lon: 141.01 Height: 94.0 m
Data from the previous 72 hours. | See also: Recent months at Smithville
Date/Time
EST
Temp
°C
App
Temp
°C
Dew
Point
°C
Rel
Hum
%
Delta-T
°C
Wind Press
QNH
hPa
Press
MSL
hPa
Rain since
9am
mm
Dir  Spd
km/h
Gust
km/h
Spd
kts
Gust
kts
19/09:30pm 10.2 - -4.6 35 5.4 - - - - - - - 0.0
19/09:00pm 10.4 - -6.0 31 5.8 - - - - - - - 0.0
19/08:30pm 12.7 - -2.7 34 6.0 - - - - - - - 0.0
19/08:00pm 13.8 - -3.0 31 6.6 - - - - - - - 0.0
19/07:30pm 14.8 - -3.0 29 7.1 - - - - - - - 0.0
19/07:00pm 16.2 - -3.3 26 7.8 - - - - - - - 0.0
19/06:30pm 17.0 - -3.7 24 8.3 - - - - - - - 0.0
19/06:00pm 17.9 - -3.5 23 8.7 - - - - - - - 0.0
19/05:30pm 18.5 - -3.6 22 9.0 - - - - - - - 0.0
19/05:00pm 18.6 - -2.3 24 8.7 - - - - - - - 0.0
19/04:30pm 18.7 - -2.8 23 8.9 - - - - - - - 0.0
19/04:00pm 19.0 - -3.8 21 9.3 - - - - - - - 0.0
19/03:30pm 18.9 - -3.3 22 9.1 - - - - - - - 0.0
19/03:00pm 18.8 - -2.7 23 8.9 - - - - - - - 0.0
19/02:30pm 18.6 - -2.9 23 8.9 - - - - - - - 0.0
19/02:00pm 18.1 - -2.8 24 8.6 - - - - - - - 0.0
19/01:30pm 17.7 - -2.0 26 8.2 - - - - - - - 0.0
19/01:00pm 17.2 - -1.4 28 7.8 - - - - - - - 0.0
19/12:30pm 16.6 - -1.0 30 7.4 - - - - - - - 0.0
19/12:00pm 16.6 - -1.5 29 7.5 - - - - - - - 0.0
19/11:30am 16.0 - 0.6 35 6.7 - - - - - - - 0.0
19/11:00am 15.1 - 0.2 36 6.4 - - - - - - - 0.0
19/10:30am 14.9 - 1.1 39 6.0 - - - - - - - 0.0
19/10:00am 14.2 - 1.5 42 5.5 - - - - - - - 0.0
19/09:30am 13.6 - 1.6 44 5.2 - - - - - - - 0.0
19/09:00am 13.1 - 2.1 47 4.8 - - - - - - - 0.0
19/08:30am 12.4 - 2.8 52 4.2 - - - - - - - 0.0
19/08:00am 11.7 - 2.7 54 3.9 - - - - - - - 0.0
19/07:30am 10.8 - 2.6 57 3.5 - - - - - - - 0.0
19/07:00am 10.0 - 2.6 60 3.2 - - - - - - - 0.0
19/06:30am 10.2 - 2.6 59 3.3 - - - - - - - 0.0
19/06:00am 10.9 - 2.7 57 3.6 - - - - - - - 0.0
19/05:30am 11.4 - 2.9 56 3.7 - - - - - - - 0.0
19/05:00am 11.7 - 3.5 57 3.6 - - - - - - - 0.0
19/04:30am 12.3 - 3.5 55 3.9 - - - - - - - 0.0
19/04:00am 12.8 - 2.9 51 4.4 - - - - - - - 0.0
19/03:30am 13.1 - 2.4 48 4.7 - - - - - - - 0.0
19/03:00am 13.6 - 1.9 45 5.1 - - - - - - - 0.0
19/02:30am 13.9 - 3.7 50 4.6 - - - - - - - 0.0
19/02:00am 14.4 - 3.5 48 5.0 - - - - - - - 0.0
19/01:30am 14.8 - 3.3 46 5.2 - - - - - - - 0.0
19/01:00am 15.3 - 2.8 43 5.6 - - - - - - - 0.0
19/12:30am 15.5 - 1.3 38 6.2 - - - - - - - 0.0
19/12:00am 16.3 - 1.2 36 6.7 - - - - - - - 0.0
 
Date/Time
EST
Temp
°C
App
Temp
°C
Dew
Point
°C
Rel
Hum
%
Delta-T
°C
Wind Press
QNH
hPa
Press
MSL
hPa
Rain since
9am
mm
Dir  Spd
km/h
Gust
km/h
Spd
kts
Gust
kts
18/11:30pm 16.9 - 1.4 35 6.9 - - - - - - - 0.0
18/11:00pm 17.6 - 2.0 35 7.1 - - - - - - - 0.0
18/10:30pm 17.9 - 3.4 38 6.8 - - - - - - - 0.0
18/10:00pm 18.3 - -3.8 22 8.9 - - - - - - - 0.0
18/09:30pm 17.2 - -13.5 11 10.0 - - - - - - - 0.0
18/09:00pm 17.5 - -14.4 10 10.3 - - - - - - - 0.0
18/08:30pm 17.8 - -14.2 10 10.4 - - - - - - - 0.0
18/08:00pm 19.1 - -14.5 9 11.0 - - - - - - - 0.0
18/07:30pm 20.6 - -13.3 9 11.6 - - - - - - - 0.0
18/07:00pm 22.7 - -13.2 8 12.6 - - - - - - - 0.0
18/06:30pm 24.5 - -13.5 7 13.6 - - - - - - - 0.0
18/06:00pm 25.7 - -14.5 6 14.3 - - - - - - - 0.0
18/05:30pm 26.0 - -14.3 6 14.4 - - - - - - - 0.0
18/05:00pm 26.2 - -14.2 6 14.5 - - - - - - - 0.0
18/04:30pm 26.5 - -13.9 6 14.7 - - - - - - - 0.0
18/04:00pm 26.6 - -13.9 6 14.7 - - - - - - - 0.0
18/03:30pm 26.9 - -13.7 6 14.8 - - - - - - - 0.0
18/03:00pm 27.0 - -13.6 6 14.9 - - - - - - - 0.0
18/02:30pm 26.5 - -13.9 6 14.7 - - - - - - - 0.0
18/02:00pm 26.5 - -13.9 6 14.7 - - - - - - - 0.0
18/01:30pm 25.6 - -12.7 7 14.1 - - - - - - - 0.0
18/01:00pm 25.6 - -12.7 7 14.1 - - - - - - - 0.0
18/12:30pm 24.6 - -13.4 7 13.6 - - - - - - - 0.0
18/12:00pm 24.3 - -12.0 8 13.3 - - - - - - - 0.0
18/11:30am 24.0 - -12.2 8 13.2 - - - - - - - 0.0
18/11:00am 23.1 - -12.9 8 12.8 - - - - - - - 0.0
18/10:30am 22.3 - -12.1 9 12.3 - - - - - - - 0.0
18/10:00am 21.3 - -11.5 10 11.7 - - - - - - - 0.0
18/09:30am 20.0 - -11.3 11 11.1 - - - - - - - 0.0
18/09:00am 18.2 - -11.6 12 10.2 - - - - - - - 0.0
18/08:30am 16.3 - -11.2 14 9.3 - - - - - - - 0.0
18/08:00am 13.2 - -11.3 17 7.9 - - - - - - - 0.0
18/07:30am 10.6 - -11.4 20 6.8 - - - - - - - 0.0
18/07:00am 6.5 - -12.1 25 5.3 - - - - - - - 0.0
18/06:30am 5.1 - -12.8 26 4.9 - - - - - - - 0.0
18/06:00am 6.2 - -12.3 25 5.3 - - - - - - - 0.0
18/05:30am 4.9 - -13.0 26 4.9 - - - - - - - 0.0
18/05:00am 3.8 - -13.4 27 4.8 - - - - - - - 0.0
18/04:30am 3.0 - -14.1 27 4.6 - - - - - - - 0.0
18/04:00am 4.9 - -13.9 24 5.3 - - - - - - - 0.0
18/03:30am 7.7 - -12.6 22 5.9 - - - - - - - 0.0
18/03:00am 7.0 - -12.2 24 5.5 - - - - - - - 0.0
18/02:30am 7.3 - -12.4 23 5.7 - - - - - - - 0.0
18/02:00am 7.7 - -12.1 23 5.8 - - - - - - - 0.0
18/01:30am 7.0 - -12.2 24 5.5 - - - - - - - 0.0
18/01:00am 6.8 - -12.3 24 5.5 - - - - - - - 0.0
18/12:30am 7.2 - -12.5 23 5.7 - - - - - - - 0.0
18/12:00am 8.4 - -12.0 22 6.1 - - - - - - - 0.0
 
Date/Time
EST
Temp
°C
App
Temp
°C
Dew
Point
°C
Rel
Hum
%
Delta-T
°C
Wind Press
QNH
hPa
Press
MSL
hPa
Rain since
9am
mm
Dir  Spd
km/h
Gust
km/h
Spd
kts
Gust
kts
17/11:30pm 7.8 - -13.1 21 6.0 - - - - - - - 0.0
17/11:00pm 7.0 - -13.8 21 5.8 - - - - - - - 0.0
17/10:30pm 7.9 - -13.6 20 6.1 - - - - - - - 0.0
17/10:00pm 9.5 - -11.7 21 6.4 - - - - - - - 0.0
17/09:30pm 9.6 - -12.9 19 6.7 - - - - - - - 0.0
17/09:00pm 12.6 - -11.1 18 7.6 - - - - - - - 0.0
17/08:30pm 12.4 - -11.9 17 7.7 - - - - - - - 0.0
17/08:00pm 13.1 - -12.1 16 8.0 - - - - - - - 0.0
17/07:30pm 14.5 - -12.6 14 8.7 - - - - - - - 0.0
17/07:00pm 17.0 - -12.6 12 9.8 - - - - - - - 0.0
17/06:30pm 19.3 - -11.9 11 10.8 - - - - - - - 0.0
17/06:00pm 20.5 - -12.1 10 11.4 - - - - - - - 0.0
17/05:30pm 20.9 - -11.8 10 11.6 - - - - - - - 0.0
17/05:00pm 21.2 - -11.6 10 11.7 - - - - - - - 0.0
17/04:30pm 21.5 - -11.4 10 11.8 - - - - - - - 0.0
17/04:00pm 21.2 - -11.6 10 11.7 - - - - - - - 0.0
17/03:30pm 21.3 - -11.5 10 11.7 - - - - - - - 0.0
17/03:00pm 21.4 - -11.4 10 11.8 - - - - - - - 0.0
17/02:30pm 20.8 - -11.9 10 11.5 - - - - - - - 0.0
17/02:00pm 20.8 - -10.7 11 11.4 - - - - - - - 0.0
17/01:30pm 20.5 - -9.8 12 11.1 - - - - - - - 0.0
17/01:00pm 20.0 - -8.3 14 10.6 - - - - - - - 0.0
17/12:30pm 19.6 - -9.5 13 10.6 - - - - - - - 0.0
17/12:00pm 18.3 - -7.9 16 9.7 - - - - - - - 0.0
17/11:30am 18.3 - -7.9 16 9.7 - - - - - - - 0.0
17/11:00am 17.7 - -6.9 18 9.3 - - - - - - - 0.0
17/10:30am 16.8 - -6.3 20 8.7 - - - - - - - 0.0
17/10:00am 16.2 - -5.5 22 8.3 - - - - - - - 0.0
17/09:30am 15.5 - -5.0 24 7.8 - - - - - - - 0.0
17/09:00am 14.1 - -5.6 25 7.3 - - - - - - - 0.0
17/08:30am 12.1 - -5.8 28 6.5 - - - - - - - 0.0
17/08:00am 9.3 - -6.9 31 5.5 - - - - - - - 0.0
17/07:30am 5.8 - -7.7 37 4.3 - - - - - - - 0.0
17/07:00am 2.7 - -8.0 45 3.4 - - - - - - - 0.0
17/06:30am 1.2 - -9.4 45 3.1 - - - - - - - 0.0
17/06:00am 1.3 - -8.7 47 3.0 - - - - - - - 0.0
17/05:30am 2.0 - -8.9 44 3.3 - - - - - - - 0.0
17/05:00am 2.6 - -8.1 45 3.4 - - - - - - - 0.0
17/04:30am 2.6 - -7.3 48 3.2 - - - - - - - 0.0
17/04:00am 2.2 - -7.4 49 3.1 - - - - - - - 0.0
17/03:30am 2.4 - -8.6 44 3.4 - - - - - - - 0.0
17/03:00am 2.8 - -7.1 48 3.2 - - - - - - - 0.0
17/02:30am 3.3 - -8.7 41 3.8 - - - - - - - 0.0
17/02:00am 5.2 - -5.5 46 3.6 - - - - - - - 0.0
17/01:30am 5.0 - -5.9 45 3.6 - - - - - - - 0.0
17/01:00am 6.0 - -6.2 41 4.0 - - - - - - - 0.0
17/12:30am 6.5 - -5.5 42 4.1 - - - - - - - 0.0
17/12:00am 7.1 - -5.9 39 4.4 - - - - - - - 0.0
 
Date/Time
EST
Temp
°C
App
Temp
°C
Dew
Point
°C
Rel
Hum
%
Delta-T
°C
Wind Press
QNH
hPa
Press
MSL
hPa
Rain since
9am
mm
Dir  Spd
km/h
Gust
km/h
Spd
kts
Gust
kts
16/11:30pm 7.5 - -5.9 38 4.6 - - - - - - - 0.0
16/11:00pm 8.1 - -5.3 38 4.7 - - - - - - - 0.0
16/10:30pm 8.4 - -5.8 36 4.9 - - - - - - - 0.0
16/10:00pm 9.4 - -5.6 34 5.3 - - - - - - - 0.0

Other Formats:

Comma delimited format used in spreadsheet applications
http://www.bom.gov.au/fwo/IDN60801/IDN60801.94796.axf

JavaScript Object Notation format (JSON) in row-major order
http://www.bom.gov.au/fwo/IDN60801/IDN60801.94796.json